createdAt,value
2023-01-22T00:02:13.698Z,27.23
2023-01-22T00:04:40.389Z,27.90
2023-01-22T00:07:07.092Z,27.10
2023-01-22T00:09:33.740Z,29.40
2023-01-22T00:12:00.718Z,23.67
2023-01-22T00:14:27.419Z,23.23
2023-01-22T00:16:54.231Z,28.83
2023-01-22T00:19:20.913Z,23.97
2023-01-22T00:21:47.641Z,25.17
2023-01-22T00:24:14.383Z,25.83
2023-01-22T00:26:41.280Z,26.17
2023-01-22T00:29:08.004Z,27.43
2023-01-22T00:31:34.811Z,29.30
2023-01-22T00:34:01.575Z,24.97
2023-01-22T00:36:28.363Z,26.17
2023-01-22T00:38:55.066Z,26.10
2023-01-22T00:41:21.852Z,27.53
2023-01-22T00:43:50.103Z,26.37
2023-01-22T00:46:18.704Z,28.07
2023-01-22T00:48:45.432Z,24.20
2023-01-22T00:51:13.209Z,25.33
2023-01-22T00:53:43.711Z,24.63
2023-01-22T00:56:11.948Z,26.40
2023-01-22T00:58:38.891Z,24.27
2023-01-22T01:01:07.513Z,26.27
2023-01-22T01:03:35.465Z,25.77
2023-01-22T01:06:07.165Z,22.63
2023-01-22T01:08:39.407Z,25.40
2023-01-22T01:11:09.251Z,24.43
2023-01-22T01:13:38.821Z,22.17
2023-01-22T01:16:08.391Z,25.27
2023-01-22T01:18:36.500Z,23.00
2023-01-22T01:21:04.803Z,24.73
2023-01-22T01:23:31.578Z,23.10
2023-01-22T01:25:58.369Z,23.40
2023-01-22T01:28:25.412Z,22.67
2023-01-22T01:30:52.248Z,22.07
2023-01-22T01:33:18.939Z,22.43
2023-01-22T01:35:45.625Z,22.80
2023-01-22T01:38:12.285Z,23.63
2023-01-22T01:40:44.095Z,23.17
2023-01-22T01:43:17.828Z,22.70
2023-01-22T01:45:44.617Z,21.53
2023-01-22T01:48:26.300Z,21.87
2023-01-22T01:51:14.454Z,21.60
2023-01-22T01:53:44.180Z,22.40
2023-01-22T01:56:21.698Z,23.50
2023-01-22T01:58:52.585Z,23.50
2023-01-22T02:01:20.041Z,21.80
2023-01-22T02:03:47.279Z,23.30
2023-01-22T02:06:17.136Z,23.17
2023-01-22T02:08:49.496Z,19.90
2023-01-22T02:11:18.097Z,22.20
2023-01-22T02:14:00.445Z,22.57
2023-01-22T02:16:27.437Z,23.50
2023-01-22T02:18:54.298Z,24.00
2023-01-22T02:21:40.249Z,26.47
2023-01-22T02:24:11.299Z,23.90
2023-01-22T02:26:38.910Z,22.47
2023-01-22T02:29:09.733Z,24.10
2023-01-22T02:31:37.736Z,21.97
2023-01-22T02:34:05.867Z,24.23
2023-01-22T02:36:36.460Z,23.67
2023-01-22T02:39:04.026Z,23.03
2023-01-22T02:41:31.152Z,26.27
2023-01-22T02:43:57.879Z,25.40
2023-01-22T02:46:25.964Z,23.23
2023-01-22T02:48:53.056Z,26.87
2023-01-22T02:51:19.920Z,23.10
2023-01-22T02:53:46.646Z,21.80
2023-01-22T02:56:13.276Z,22.57
2023-01-22T02:58:39.987Z,23.53
2023-01-22T03:01:21.622Z,24.90
2023-01-22T03:03:56.712Z,24.17
2023-01-22T03:06:26.810Z,26.50
2023-01-22T03:08:59.445Z,21.00
2023-01-22T03:11:28.207Z,23.73
2023-01-22T03:14:14.349Z,25.63
2023-01-22T03:17:00.817Z,23.27
2023-01-22T03:19:46.216Z,24.43
2023-01-22T03:22:14.109Z,25.30
2023-01-22T03:24:41.456Z,23.60
2023-01-22T03:27:08.249Z,25.90
2023-01-22T03:29:38.340Z,24.73
2023-01-22T03:32:06.700Z,25.10
2023-01-22T03:34:34.310Z,20.37
2023-01-22T03:37:00.961Z,21.90
2023-01-22T03:39:28.260Z,24.07
2023-01-22T03:41:54.925Z,22.87
2023-01-22T03:44:21.651Z,20.83
2023-01-22T03:46:48.363Z,21.80
2023-01-22T03:49:15.227Z,23.37
2023-01-22T03:51:43.220Z,24.27
2023-01-22T03:54:12.520Z,23.97
2023-01-22T03:56:39.759Z,24.27
2023-01-22T03:59:06.646Z,22.37
2023-01-22T04:01:33.687Z,23.13
2023-01-22T04:04:00.879Z,22.37
2023-01-22T04:06:28.474Z,24.17
2023-01-22T04:08:56.081Z,21.30
2023-01-22T04:11:23.250Z,25.93
2023-01-22T04:13:50.230Z,25.07
2023-01-22T04:16:17.527Z,21.50
2023-01-22T04:18:44.425Z,24.40
2023-01-22T04:21:11.248Z,24.90
2023-01-22T04:23:37.937Z,24.50
2023-01-22T04:26:04.818Z,21.93
2023-01-22T04:28:31.551Z,23.37
2023-01-22T04:30:58.504Z,21.37
2023-01-22T04:33:25.378Z,23.47
2023-01-22T04:35:54.088Z,22.83
2023-01-22T04:38:20.883Z,25.23
2023-01-22T04:40:47.494Z,23.60
2023-01-22T04:43:14.191Z,22.07
2023-01-22T04:45:40.954Z,21.70
2023-01-22T04:48:09.139Z,22.93
2023-01-22T04:50:35.860Z,20.67
2023-01-22T04:53:03.480Z,20.30
2023-01-22T04:55:30.796Z,20.83
2023-01-22T04:57:59.407Z,21.27
2023-01-22T05:00:28.394Z,20.23
2023-01-22T05:02:59.983Z,22.93
2023-01-22T05:05:27.985Z,20.57
2023-01-22T05:07:55.052Z,21.97
2023-01-22T05:10:22.543Z,22.60
2023-01-22T05:12:49.622Z,22.90
2023-01-22T05:15:24.150Z,21.30
2023-01-22T05:17:52.398Z,21.57
2023-01-22T05:20:19.446Z,21.30
2023-01-22T05:22:46.226Z,22.07
2023-01-22T05:25:13.162Z,20.80
2023-01-22T05:27:40.107Z,24.40
2023-01-22T05:30:07.796Z,24.63
2023-01-22T05:32:34.454Z,24.23
2023-01-22T05:35:01.224Z,20.37
2023-01-22T05:37:27.854Z,22.63
2023-01-22T05:39:54.572Z,20.43
2023-01-22T05:42:21.250Z,19.50
2023-01-22T05:44:47.975Z,22.57
2023-01-22T05:47:15.630Z,23.40
2023-01-22T05:49:42.345Z,21.87
2023-01-22T05:52:12.010Z,23.87
2023-01-22T05:54:39.855Z,21.27
2023-01-22T05:57:06.934Z,22.20
2023-01-22T05:59:33.835Z,23.97
2023-01-22T06:02:00.750Z,25.20
2023-01-22T06:04:27.550Z,22.53
2023-01-22T06:06:54.306Z,21.97
2023-01-22T06:09:21.011Z,24.60
2023-01-22T06:11:47.997Z,22.23
2023-01-22T06:14:14.721Z,23.07
2023-01-22T06:16:41.368Z,20.17
2023-01-22T06:19:08.475Z,23.43
2023-01-22T06:21:35.268Z,26.83
2023-01-22T06:24:02.006Z,23.33
2023-01-22T06:26:28.664Z,21.33
2023-01-22T06:28:55.527Z,20.93
2023-01-22T06:31:22.368Z,20.30
2023-01-22T06:33:49.131Z,24.90
2023-01-22T06:36:16.189Z,23.87
2023-01-22T06:38:42.897Z,21.67
2023-01-22T06:41:10.645Z,23.40
2023-01-22T06:43:37.839Z,25.97
2023-01-22T06:46:05.411Z,24.27
2023-01-22T06:48:32.334Z,23.63
2023-01-22T06:51:00.051Z,24.07
2023-01-22T06:53:26.979Z,25.30
2023-01-22T06:55:53.619Z,23.17
2023-01-22T06:58:20.289Z,25.63
2023-01-22T07:00:46.955Z,19.30
2023-01-22T07:03:13.816Z,24.93
2023-01-22T07:05:40.520Z,22.70
2023-01-22T07:08:07.616Z,25.80
2023-01-22T07:10:34.238Z,27.10
2023-01-22T07:13:01.587Z,29.47
2023-01-22T07:15:28.285Z,23.50
2023-01-22T07:17:55.094Z,25.83
2023-01-22T07:20:23.286Z,21.07
2023-01-22T07:22:50.977Z,24.10
2023-01-22T07:25:21.300Z,24.33
2023-01-22T07:27:48.050Z,25.40
2023-01-22T07:30:14.879Z,26.90
2023-01-22T07:32:41.596Z,25.50
2023-01-22T07:35:08.955Z,25.70
2023-01-22T07:37:36.485Z,27.80
2023-01-22T07:40:03.512Z,27.63
2023-01-22T07:42:30.287Z,27.73
2023-01-22T07:44:56.973Z,23.77
2023-01-22T07:47:23.811Z,28.60
2023-01-22T07:49:50.503Z,23.40
2023-01-22T07:52:17.187Z,23.13
2023-01-22T07:54:43.804Z,26.80
2023-01-22T07:57:15.284Z,25.30
2023-01-22T07:59:42.283Z,27.50
2023-01-22T08:02:14.083Z,25.53
2023-01-22T08:04:43.869Z,25.37
2023-01-22T08:07:19.676Z,34.67
2023-01-22T08:09:46.437Z,36.80
2023-01-22T08:12:13.106Z,32.43
2023-01-22T08:14:39.771Z,33.50
2023-01-22T08:17:06.469Z,29.87
2023-01-22T08:19:33.156Z,32.60
2023-01-22T08:21:59.894Z,25.70
2023-01-22T08:24:26.573Z,29.80
2023-01-22T08:26:53.403Z,28.90
2023-01-22T08:29:20.300Z,32.17
2023-01-22T08:31:47.088Z,25.67
2023-01-22T08:34:13.921Z,31.03
2023-01-22T08:36:40.654Z,22.80
2023-01-22T08:39:07.478Z,26.63
2023-01-22T08:41:34.172Z,30.10
2023-01-22T08:44:00.876Z,27.43
2023-01-22T08:46:27.944Z,25.27
2023-01-22T08:48:54.712Z,26.20
2023-01-22T08:51:23.464Z,24.73
2023-01-22T08:53:51.228Z,23.53
2023-01-22T08:56:17.998Z,24.57
2023-01-22T08:58:44.633Z,25.23
2023-01-22T09:01:16.847Z,28.23
2023-01-22T09:03:43.847Z,26.30
2023-01-22T09:06:10.605Z,23.30
2023-01-22T09:08:37.417Z,26.47
2023-01-22T09:11:06.867Z,30.27
2023-01-22T09:13:33.655Z,25.33
2023-01-22T09:16:00.372Z,28.50
2023-01-22T09:18:27.487Z,27.90
2023-01-22T09:20:54.159Z,24.83
2023-01-22T09:23:22.259Z,24.27
2023-01-22T09:25:49.178Z,24.17
2023-01-22T09:28:15.996Z,23.57
2023-01-22T09:30:44.147Z,24.90
2023-01-22T09:33:10.899Z,27.53
2023-01-22T09:35:37.840Z,27.67
2023-01-22T09:38:05.820Z,29.83
2023-01-22T09:41:02.465Z,28.30
2023-01-22T09:43:37.490Z,25.93
2023-01-22T09:46:12.669Z,28.43
2023-01-22T09:48:51.813Z,25.80
2023-01-22T09:51:19.490Z,25.87
2023-01-22T09:53:52.213Z,23.53
2023-01-22T09:56:23.161Z,26.63
2023-01-22T09:58:51.805Z,26.67
2023-01-22T10:01:21.223Z,25.33
2023-01-22T10:03:53.714Z,25.40
2023-01-22T10:06:23.157Z,24.30
2023-01-22T10:09:19.024Z,22.63
2023-01-22T10:11:53.939Z,24.03
2023-01-22T10:14:23.330Z,21.73
2023-01-22T10:16:50.964Z,24.73
2023-01-22T10:19:26.107Z,22.90
2023-01-22T10:21:59.657Z,23.33
2023-01-22T10:24:26.418Z,26.80
2023-01-22T10:26:55.343Z,22.50
2023-01-22T10:29:22.078Z,24.03
2023-01-22T10:31:54.338Z,20.97
2023-01-22T10:34:32.443Z,19.77
2023-01-22T10:37:21.506Z,20.93
2023-01-22T10:39:50.656Z,20.60
2023-01-22T10:42:25.424Z,20.60
2023-01-22T10:45:07.779Z,20.67
2023-01-22T10:47:34.707Z,19.37
2023-01-22T10:50:12.702Z,18.33
2023-01-22T10:52:48.023Z,21.90
2023-01-22T10:55:23.040Z,20.63
2023-01-22T10:58:06.641Z,20.23
2023-01-22T11:00:50.887Z,21.20
2023-01-22T11:03:24.155Z,18.73
2023-01-22T11:06:01.518Z,21.10
2023-01-22T11:08:33.619Z,21.33
2023-01-22T11:11:05.912Z,22.90
2023-01-22T11:13:42.083Z,18.07
2023-01-22T11:16:23.575Z,17.30
2023-01-22T11:18:58.733Z,17.47
2023-01-22T11:21:34.903Z,15.20
2023-01-22T11:24:19.449Z,19.40
2023-01-22T11:26:56.619Z,15.67
2023-01-22T11:29:50.466Z,16.13
2023-01-22T11:32:42.195Z,16.00
2023-01-22T11:35:36.757Z,19.20
2023-01-22T11:38:24.861Z,18.27
2023-01-22T11:41:20.078Z,18.30
2023-01-22T11:44:09.356Z,15.67
2023-01-22T11:47:06.743Z,19.67
2023-01-22T11:50:05.663Z,17.10
2023-01-22T11:52:32.305Z,17.97
2023-01-22T11:55:14.169Z,19.90
2023-01-22T11:58:03.708Z,16.07
2023-01-22T12:01:06.500Z,18.00
2023-01-22T12:03:50.748Z,15.63
2023-01-22T12:06:31.761Z,18.03
2023-01-22T12:09:19.451Z,16.13
2023-01-22T12:12:02.743Z,15.60
2023-01-22T12:14:37.033Z,16.83
2023-01-22T12:17:22.308Z,16.93
2023-01-22T12:20:15.534Z,16.27
2023-01-22T12:23:24.117Z,15.70
2023-01-22T12:25:55.366Z,13.73
2023-01-22T12:28:27.068Z,13.33
2023-01-22T12:31:04.970Z,14.53
2023-01-22T12:33:38.943Z,14.47
2023-01-22T12:36:07.966Z,15.43
2023-01-22T12:38:45.111Z,14.87
2023-01-22T12:41:20.679Z,14.93
2023-01-22T12:43:51.489Z,16.27
2023-01-22T12:46:32.199Z,14.93
2023-01-22T12:49:04.148Z,14.30
2023-01-22T12:51:43.397Z,16.83
2023-01-22T12:54:20.518Z,17.10
2023-01-22T12:56:49.163Z,17.33
2023-01-22T12:59:37.655Z,17.10
2023-01-22T13:02:21.532Z,20.33
2023-01-22T13:04:48.406Z,20.77
2023-01-22T13:07:33.261Z,18.57
2023-01-22T13:10:02.596Z,18.60
2023-01-22T13:12:45.486Z,19.87
2023-01-22T13:15:26.100Z,20.17
2023-01-22T13:18:07.243Z,18.87
2023-01-22T13:21:04.621Z,19.60
2023-01-22T13:23:34.247Z,19.37
2023-01-22T13:26:01.657Z,20.00
2023-01-22T13:28:28.780Z,20.40
2023-01-22T13:30:57.423Z,18.13
2023-01-22T13:33:25.122Z,21.07
2023-01-22T13:35:51.855Z,20.00
2023-01-22T13:38:27.498Z,24.30
2023-01-22T13:40:58.355Z,21.47
2023-01-22T13:43:26.857Z,19.30
2023-01-22T13:45:55.721Z,20.07
2023-01-22T13:48:24.301Z,24.27
2023-01-22T13:50:55.789Z,19.13
2023-01-22T13:53:27.798Z,19.70
2023-01-22T13:55:55.243Z,22.80
2023-01-22T13:58:47.872Z,23.23
2023-01-22T14:01:32.441Z,22.20
2023-01-22T14:04:07.377Z,21.90
2023-01-22T14:06:46.197Z,22.30
2023-01-22T14:09:13.343Z,20.20
2023-01-22T14:11:40.895Z,24.37
2023-01-22T14:14:18.718Z,20.77
2023-01-22T14:16:46.438Z,21.73
2023-01-22T14:19:15.991Z,20.37
2023-01-22T14:21:42.779Z,18.57
2023-01-22T14:24:14.269Z,19.90
2023-01-22T14:26:41.104Z,18.07
2023-01-22T14:29:08.110Z,19.13
2023-01-22T14:31:34.909Z,23.03
2023-01-22T14:34:01.712Z,24.57
2023-01-22T14:36:28.451Z,22.87
2023-01-22T14:38:55.419Z,22.57
2023-01-22T14:41:22.186Z,22.07
2023-01-22T14:43:49.092Z,24.00
2023-01-22T14:46:15.801Z,28.77
2023-01-22T14:48:42.557Z,23.80
2023-01-22T14:51:11.012Z,20.40
2023-01-22T14:53:38.515Z,24.27
2023-01-22T14:56:05.594Z,26.47
2023-01-22T14:58:32.337Z,27.20
2023-01-22T15:00:59.132Z,20.00
2023-01-22T15:03:29.650Z,23.10
2023-01-22T15:05:56.492Z,20.33
2023-01-22T15:08:24.355Z,20.60
2023-01-22T15:10:51.102Z,18.17
2023-01-22T15:13:17.926Z,17.90
2023-01-22T15:15:44.692Z,18.80
2023-01-22T15:18:11.465Z,20.00
2023-01-22T15:20:39.148Z,16.23
2023-01-22T15:23:05.895Z,18.23
2023-01-22T15:25:33.097Z,17.63
2023-01-22T15:28:00.197Z,16.53
2023-01-22T15:30:27.101Z,15.17
2023-01-22T15:32:54.045Z,16.13
2023-01-22T15:35:20.871Z,19.20
2023-01-22T15:37:48.513Z,18.57
2023-01-22T15:40:15.674Z,17.30
2023-01-22T15:42:42.511Z,19.77
2023-01-22T15:45:10.197Z,19.27
2023-01-22T15:47:36.974Z,17.97
2023-01-22T15:50:04.043Z,17.33
2023-01-22T15:52:30.863Z,16.63
2023-01-22T15:54:57.972Z,14.90
2023-01-22T15:57:24.742Z,17.10
2023-01-22T15:59:51.565Z,17.10
2023-01-22T16:02:18.544Z,18.73
2023-01-22T16:04:45.366Z,17.03
2023-01-22T16:07:12.154Z,18.73
2023-01-22T16:09:39.225Z,16.80
2023-01-22T16:12:06.395Z,15.80
2023-01-22T16:14:33.166Z,16.97
2023-01-22T16:17:00.694Z,16.83
2023-01-22T16:19:27.479Z,16.57
2023-01-22T16:21:54.259Z,14.63
2023-01-22T16:24:21.178Z,16.77
2023-01-22T16:26:47.978Z,16.17
2023-01-22T16:29:14.767Z,17.30
2023-01-22T16:31:41.815Z,14.77
2023-01-22T16:34:15.050Z,17.27
2023-01-22T16:36:42.977Z,14.70
2023-01-22T16:39:16.348Z,15.97
2023-01-22T16:41:43.116Z,16.33
2023-01-22T16:44:12.957Z,15.90
2023-01-22T16:46:42.979Z,16.63
2023-01-22T16:49:18.391Z,14.00
2023-01-22T16:51:50.697Z,15.90
2023-01-22T16:54:32.802Z,17.77
2023-01-22T16:57:07.530Z,19.20
2023-01-22T16:59:35.728Z,18.13
2023-01-22T17:02:04.998Z,19.97
2023-01-22T17:04:32.077Z,27.77
2023-01-22T17:07:00.006Z,31.43
2023-01-22T17:09:29.540Z,26.33
2023-01-22T17:11:58.499Z,22.53
2023-01-22T17:14:27.211Z,20.77
2023-01-22T17:16:54.432Z,21.03
2023-01-22T17:19:21.636Z,23.10
2023-01-22T17:21:55.113Z,17.80
2023-01-22T17:24:22.385Z,21.03
2023-01-22T17:26:50.682Z,17.13
2023-01-22T17:29:17.741Z,19.47
2023-01-22T17:31:45.300Z,19.50
2023-01-22T17:34:12.249Z,19.17
2023-01-22T17:36:40.414Z,17.13
2023-01-22T17:39:10.854Z,16.13
2023-01-22T17:41:39.066Z,15.93
2023-01-22T17:44:08.968Z,19.20
2023-01-22T17:46:40.367Z,19.87
2023-01-22T17:49:07.373Z,20.90
2023-01-22T17:51:35.016Z,25.03
2023-01-22T17:54:03.573Z,19.43
2023-01-22T17:56:33.365Z,17.17
2023-01-22T17:59:02.903Z,17.33
2023-01-22T18:01:31.207Z,18.13
2023-01-22T18:03:59.935Z,14.57
2023-01-22T18:06:27.280Z,13.47
2023-01-22T18:08:54.927Z,13.17
2023-01-22T18:11:27.785Z,12.63
2023-01-22T18:13:56.881Z,14.00
2023-01-22T18:16:25.031Z,11.80
2023-01-22T18:18:52.633Z,13.17
2023-01-22T18:21:21.818Z,12.80
2023-01-22T18:23:49.183Z,12.27
2023-01-22T18:26:19.819Z,13.77
2023-01-22T18:28:46.563Z,12.43
2023-01-22T18:31:16.259Z,11.77
2023-01-22T18:33:46.022Z,13.87
2023-01-22T18:36:18.454Z,12.97
2023-01-22T18:38:45.505Z,11.77
2023-01-22T18:41:18.793Z,13.73
2023-01-22T18:43:51.902Z,12.50
2023-01-22T18:46:20.283Z,13.27
2023-01-22T18:48:47.252Z,12.77
2023-01-22T18:51:14.244Z,15.33
2023-01-22T18:53:42.323Z,13.20
2023-01-22T18:56:15.487Z,15.53
2023-01-22T18:58:48.856Z,12.00
2023-01-22T19:01:22.649Z,12.93
2023-01-22T19:03:53.304Z,13.87
2023-01-22T19:06:23.618Z,16.33
2023-01-22T19:08:57.510Z,16.13
2023-01-22T19:11:24.852Z,13.70
2023-01-22T19:13:56.183Z,16.50
2023-01-22T19:16:24.340Z,13.73
2023-01-22T19:19:04.088Z,14.67
2023-01-22T19:21:36.872Z,16.20
2023-01-22T19:24:07.823Z,17.83
2023-01-22T19:26:38.988Z,13.67
2023-01-22T19:29:10.517Z,17.90
2023-01-22T19:31:40.577Z,15.23
2023-01-22T19:34:11.861Z,17.33
2023-01-22T19:36:47.664Z,14.43
2023-01-22T19:39:14.540Z,16.80
2023-01-22T19:41:42.282Z,18.03
2023-01-22T19:44:10.420Z,17.43
2023-01-22T19:46:40.340Z,15.73
2023-01-22T19:49:08.051Z,16.47
2023-01-22T19:51:35.398Z,15.63
2023-01-22T19:54:04.609Z,13.93
2023-01-22T19:56:34.762Z,16.87
2023-01-22T19:59:06.014Z,15.07
2023-01-22T20:01:34.220Z,15.47
2023-01-22T20:04:04.047Z,15.03
2023-01-22T20:06:30.816Z,15.43
2023-01-22T20:08:58.140Z,13.90
2023-01-22T20:11:25.642Z,15.80
2023-01-22T20:13:52.682Z,16.00
2023-01-22T20:16:25.148Z,14.60
2023-01-22T20:18:53.061Z,14.30
2023-01-22T20:21:21.571Z,14.60
2023-01-22T20:23:49.232Z,15.93
2023-01-22T20:26:17.824Z,15.67
2023-01-22T20:28:45.395Z,14.87
2023-01-22T20:31:14.998Z,15.73
2023-01-22T20:33:41.974Z,14.03
2023-01-22T20:36:14.899Z,13.30
2023-01-22T20:38:43.516Z,13.53
2023-01-22T20:41:10.390Z,12.90
2023-01-22T20:43:41.639Z,14.67
2023-01-22T20:46:17.091Z,13.73
2023-01-22T20:48:47.256Z,15.37
2023-01-22T20:51:27.432Z,17.47
2023-01-22T20:53:56.591Z,14.97
2023-01-22T20:56:30.203Z,15.37
2023-01-22T20:59:10.459Z,14.60
2023-01-22T21:01:37.609Z,16.30
2023-01-22T21:04:05.079Z,15.20
2023-01-22T21:06:33.755Z,14.43
2023-01-22T21:09:01.365Z,16.47
2023-01-22T21:11:30.931Z,15.80
2023-01-22T21:13:59.327Z,16.03
2023-01-22T21:16:31.649Z,15.57
2023-01-22T21:19:07.145Z,18.13
2023-01-22T21:21:35.394Z,16.60
2023-01-22T21:24:02.710Z,16.53
2023-01-22T21:26:32.073Z,15.80
2023-01-22T21:29:02.086Z,17.20
2023-01-22T21:31:29.793Z,15.17
2023-01-22T21:34:04.440Z,18.43
2023-01-22T21:36:34.296Z,15.07
2023-01-22T21:39:02.031Z,17.47
2023-01-22T21:41:29.052Z,15.20
2023-01-22T21:44:14.366Z,17.93
2023-01-22T21:46:45.280Z,19.20
2023-01-22T21:49:18.584Z,17.07
2023-01-22T21:51:50.753Z,18.30
2023-01-22T21:54:23.114Z,16.53
2023-01-22T21:56:50.343Z,16.97
2023-01-22T21:59:17.662Z,15.93
2023-01-22T22:01:45.113Z,17.37
2023-01-22T22:04:13.561Z,15.17
2023-01-22T22:06:40.501Z,15.93
2023-01-22T22:09:16.300Z,16.37
2023-01-22T22:11:43.800Z,15.93
2023-01-22T22:14:12.942Z,17.03
2023-01-22T22:16:39.712Z,16.50
2023-01-22T22:19:07.526Z,17.60
2023-01-22T22:21:35.255Z,16.57
2023-01-22T22:24:02.055Z,15.57
2023-01-22T22:26:28.819Z,18.23
2023-01-22T22:28:55.507Z,19.60
2023-01-22T22:31:22.930Z,18.60
2023-01-22T22:33:51.846Z,19.73
2023-01-22T22:36:21.147Z,19.20
2023-01-22T22:38:48.542Z,17.53
2023-01-22T22:41:26.001Z,22.10
2023-01-22T22:43:54.461Z,19.50
2023-01-22T22:46:25.213Z,18.47
2023-01-22T22:48:53.459Z,18.63
2023-01-22T22:51:20.336Z,17.23
2023-01-22T22:53:48.508Z,17.80
2023-01-22T22:56:18.294Z,18.87
2023-01-22T22:58:45.004Z,18.17
2023-01-22T23:01:16.489Z,19.63
2023-01-22T23:03:43.586Z,22.80
2023-01-22T23:06:13.107Z,18.77
2023-01-22T23:08:41.987Z,16.37
2023-01-22T23:11:11.322Z,16.90
2023-01-22T23:13:39.020Z,21.00
2023-01-22T23:16:07.838Z,19.10
2023-01-22T23:18:35.363Z,19.07
2023-01-22T23:21:11.025Z,18.20
2023-01-22T23:23:38.385Z,18.20
2023-01-22T23:26:10.969Z,18.27
2023-01-22T23:28:38.673Z,17.17
2023-01-22T23:31:10.957Z,18.20
2023-01-22T23:33:38.052Z,18.87
2023-01-22T23:36:17.112Z,18.23
2023-01-22T23:38:45.049Z,20.37
2023-01-22T23:41:15.922Z,18.30
2023-01-22T23:43:43.595Z,18.53
2023-01-22T23:46:13.107Z,19.30
2023-01-22T23:48:39.978Z,17.73
2023-01-22T23:51:07.909Z,18.83
2023-01-22T23:53:40.110Z,19.43
2023-01-22T23:56:07.979Z,18.37
2023-01-22T23:58:35.531Z,16.50
